sensor_id;sensor_type;location;lat;lon;timestamp;temperature;humidity
18934;DHT22;9599;53.706;10.384;2024-01-30T00:00:43;4.70;99.90
18934;DHT22;9599;53.706;10.384;2024-01-30T00:03:13;4.70;99.90
18934;DHT22;9599;53.706;10.384;2024-01-30T00:05:41;4.60;99.90
18934;DHT22;9599;53.706;10.384;2024-01-30T00:08:10;4.60;99.90
18934;DHT22;9599;53.706;10.384;2024-01-30T00:10:38;4.60;99.90
18934;DHT22;9599;53.706;10.384;2024-01-30T00:13:06;4.50;99.90
18934;DHT22;9599;53.706;10.384;2024-01-30T00:15:34;4.50;99.90
18934;DHT22;9599;53.706;10.384;2024-01-30T00:18:02;4.60;99.90
18934;DHT22;9599;53.706;10.384;2024-01-30T00:20:33;4.50;99.90
18934;DHT22;9599;53.706;10.384;2024-01-30T00:23:00;4.60;99.90
18934;DHT22;9599;53.706;10.384;2024-01-30T00:25:29;4.60;99.90
18934;DHT22;9599;53.706;10.384;2024-01-30T00:27:57;4.60;99.90
18934;DHT22;9599;53.706;10.384;2024-01-30T00:30:25;4.50;99.90
18934;DHT22;9599;53.706;10.384;2024-01-30T00:32:53;4.50;99.90
18934;DHT22;9599;53.706;10.384;2024-01-30T00:35:21;4.40;99.90
18934;DHT22;9599;53.706;10.384;2024-01-30T00:37:51;4.40;99.90
18934;DHT22;9599;53.706;10.384;2024-01-30T00:40:19;4.40;99.90
18934;DHT22;9599;53.706;10.384;2024-01-30T00:42:47;4.40;99.90
18934;DHT22;9599;53.706;10.384;2024-01-30T00:45:15;4.40;99.90
18934;DHT22;9599;53.706;10.384;2024-01-30T00:47:44;4.40;99.90
18934;DHT22;9599;53.706;10.384;2024-01-30T00:50:12;4.40;99.90
18934;DHT22;9599;53.706;10.384;2024-01-30T00:52:40;4.40;99.90
18934;DHT22;9599;53.706;10.384;2024-01-30T00:55:13;4.40;99.90
18934;DHT22;9599;53.706;10.384;2024-01-30T00:57:42;4.40;99.90
18934;DHT22;9599;53.706;10.384;2024-01-30T01:00:13;4.40;99.90
18934;DHT22;9599;53.706;10.384;2024-01-30T01:02:44;4.50;99.90
18934;DHT22;9599;53.706;10.384;2024-01-30T01:05:12;4.40;99.90
18934;DHT22;9599;53.706;10.384;2024-01-30T01:07:41;4.50;99.90
18934;DHT22;9599;53.706;10.384;2024-01-30T01:10:09;4.50;99.90
18934;DHT22;9599;53.706;10.384;2024-01-30T01:12:39;4.40;99.90
18934;DHT22;9599;53.706;10.384;2024-01-30T01:15:08;4.40;99.90
18934;DHT22;9599;53.706;10.384;2024-01-30T01:17:37;4.40;99.90
18934;DHT22;9599;53.706;10.384;2024-01-30T01:20:07;4.30;99.90
18934;DHT22;9599;53.706;10.384;2024-01-30T01:22:35;4.30;99.90
18934;DHT22;9599;53.706;10.384;2024-01-30T01:25:06;4.20;99.90
18934;DHT22;9599;53.706;10.384;2024-01-30T01:27:36;4.10;99.90
18934;DHT22;9599;53.706;10.384;2024-01-30T01:30:10;4.10;99.90
18934;DHT22;9599;53.706;10.384;2024-01-30T01:32:44;4.10;99.90
18934;DHT22;9599;53.706;10.384;2024-01-30T01:35:17;4.00;99.90
18934;DHT22;9599;53.706;10.384;2024-01-30T01:37:45;4.00;99.90
18934;DHT22;9599;53.706;10.384;2024-01-30T01:40:14;4.00;99.90
18934;DHT22;9599;53.706;10.384;2024-01-30T01:42:42;4.00;99.90
18934;DHT22;9599;53.706;10.384;2024-01-30T01:45:12;4.00;99.90
18934;DHT22;9599;53.706;10.384;2024-01-30T01:47:40;4.00;99.90
18934;DHT22;9599;53.706;10.384;2024-01-30T01:50:08;4.00;99.90
18934;DHT22;9599;53.706;10.384;2024-01-30T01:52:37;4.00;99.90
18934;DHT22;9599;53.706;10.384;2024-01-30T01:55:07;4.00;99.90
18934;DHT22;9599;53.706;10.384;2024-01-30T01:57:37;4.00;99.90
18934;DHT22;9599;53.706;10.384;2024-01-30T02:00:07;4.00;99.90
18934;DHT22;9599;53.706;10.384;2024-01-30T02:02:39;4.00;99.90
18934;DHT22;9599;53.706;10.384;2024-01-30T02:05:08;3.90;99.90
18934;DHT22;9599;53.706;10.384;2024-01-30T02:07:36;4.00;99.90
18934;DHT22;9599;53.706;10.384;2024-01-30T02:10:06;3.90;99.90
18934;DHT22;9599;53.706;10.384;2024-01-30T02:12:35;4.00;99.90
18934;DHT22;9599;53.706;10.384;2024-01-30T02:15:04;4.00;99.90
18934;DHT22;9599;53.706;10.384;2024-01-30T02:17:34;4.00;99.90
18934;DHT22;9599;53.706;10.384;2024-01-30T02:20:04;4.00;99.90
18934;DHT22;9599;53.706;10.384;2024-01-30T02:22:36;4.10;99.90
18934;DHT22;9599;53.706;10.384;2024-01-30T02:25:07;4.20;99.90
18934;DHT22;9599;53.706;10.384;2024-01-30T02:27:35;4.20;99.90
18934;DHT22;9599;53.706;10.384;2024-01-30T02:30:04;4.30;99.90
18934;DHT22;9599;53.706;10.384;2024-01-30T02:32:32;4.40;99.90
18934;DHT22;9599;53.706;10.384;2024-01-30T02:35:01;4.40;99.90
18934;DHT22;9599;53.706;10.384;2024-01-30T02:37:29;4.40;99.90
18934;DHT22;9599;53.706;10.384;2024-01-30T02:39:58;4.50;99.90
18934;DHT22;9599;53.706;10.384;2024-01-30T02:42:26;4.50;99.90
18934;DHT22;9599;53.706;10.384;2024-01-30T02:44:53;4.50;99.90
18934;DHT22;9599;53.706;10.384;2024-01-30T02:47:21;4.60;99.90
18934;DHT22;9599;53.706;10.384;2024-01-30T02:49:49;4.60;99.90
18934;DHT22;9599;53.706;10.384;2024-01-30T02:52:22;4.60;99.90
18934;DHT22;9599;53.706;10.384;2024-01-30T02:54:50;4.70;99.90
18934;DHT22;9599;53.706;10.384;2024-01-30T02:57:20;4.70;99.90
18934;DHT22;9599;53.706;10.384;2024-01-30T02:59:48;4.70;99.90
18934;DHT22;9599;53.706;10.384;2024-01-30T03:02:16;4.70;99.90
18934;DHT22;9599;53.706;10.384;2024-01-30T03:04:44;4.80;99.90
18934;DHT22;9599;53.706;10.384;2024-01-30T03:07:12;4.80;99.90
18934;DHT22;9599;53.706;10.384;2024-01-30T03:09:41;4.80;99.90
18934;DHT22;9599;53.706;10.384;2024-01-30T03:12:10;4.70;99.90
18934;DHT22;9599;53.706;10.384;2024-01-30T03:14:40;4.70;99.90
18934;DHT22;9599;53.706;10.384;2024-01-30T03:17:09;4.80;99.90
18934;DHT22;9599;53.706;10.384;2024-01-30T03:19:37;4.80;99.90
18934;DHT22;9599;53.706;10.384;2024-01-30T03:22:05;4.80;99.90
18934;DHT22;9599;53.706;10.384;2024-01-30T03:24:33;4.70;99.90
18934;DHT22;9599;53.706;10.384;2024-01-30T03:27:01;4.70;99.90
18934;DHT22;9599;53.706;10.384;2024-01-30T03:29:29;4.70;99.90
18934;DHT22;9599;53.706;10.384;2024-01-30T03:31:58;4.70;99.90
18934;DHT22;9599;53.706;10.384;2024-01-30T03:34:26;4.70;99.90
18934;DHT22;9599;53.706;10.384;2024-01-30T03:36:54;4.70;99.90
18934;DHT22;9599;53.706;10.384;2024-01-30T03:39:24;4.70;99.90
18934;DHT22;9599;53.706;10.384;2024-01-30T03:41:52;4.80;99.90
18934;DHT22;9599;53.706;10.384;2024-01-30T03:44:20;4.70;99.90
18934;DHT22;9599;53.706;10.384;2024-01-30T03:46:48;4.80;99.90
18934;DHT22;9599;53.706;10.384;2024-01-30T03:49:18;4.80;99.90
18934;DHT22;9599;53.706;10.384;2024-01-30T03:51:47;4.80;99.90
18934;DHT22;9599;53.706;10.384;2024-01-30T03:54:15;4.80;99.90
18934;DHT22;9599;53.706;10.384;2024-01-30T03:56:43;4.80;99.90
18934;DHT22;9599;53.706;10.384;2024-01-30T03:59:11;4.80;99.90
18934;DHT22;9599;53.706;10.384;2024-01-30T04:01:39;4.80;99.90
18934;DHT22;9599;53.706;10.384;2024-01-30T04:04:08;4.80;99.90
18934;DHT22;9599;53.706;10.384;2024-01-30T04:06:37;4.80;99.90
18934;DHT22;9599;53.706;10.384;2024-01-30T04:09:06;4.80;99.90
18934;DHT22;9599;53.706;10.384;2024-01-30T04:11:34;4.80;99.90
18934;DHT22;9599;53.706;10.384;2024-01-30T04:14:02;4.80;99.90
18934;DHT22;9599;53.706;10.384;2024-01-30T04:16:30;4.90;99.90
18934;DHT22;9599;53.706;10.384;2024-01-30T04:18:58;4.80;99.90
18934;DHT22;9599;53.706;10.384;2024-01-30T04:21:26;4.90;99.90
18934;DHT22;9599;53.706;10.384;2024-01-30T04:23:57;4.80;99.90
18934;DHT22;9599;53.706;10.384;2024-01-30T04:26:25;4.80;99.90
18934;DHT22;9599;53.706;10.384;2024-01-30T04:28:53;4.80;99.90
18934;DHT22;9599;53.706;10.384;2024-01-30T04:31:21;4.80;99.90
18934;DHT22;9599;53.706;10.384;2024-01-30T04:33:49;4.80;99.90
18934;DHT22;9599;53.706;10.384;2024-01-30T04:36:17;4.80;99.90
18934;DHT22;9599;53.706;10.384;2024-01-30T04:38:45;4.80;99.90
18934;DHT22;9599;53.706;10.384;2024-01-30T04:41:15;4.80;99.90
18934;DHT22;9599;53.706;10.384;2024-01-30T04:43:43;4.80;99.90
18934;DHT22;9599;53.706;10.384;2024-01-30T04:46:11;4.80;99.90
18934;DHT22;9599;53.706;10.384;2024-01-30T04:48:39;4.80;99.90
18934;DHT22;9599;53.706;10.384;2024-01-30T04:51:07;4.80;99.90
18934;DHT22;9599;53.706;10.384;2024-01-30T04:53:35;4.70;99.90
18934;DHT22;9599;53.706;10.384;2024-01-30T04:56:05;4.70;99.90
18934;DHT22;9599;53.706;10.384;2024-01-30T04:58:35;4.70;99.90
18934;DHT22;9599;53.706;10.384;2024-01-30T05:01:03;4.70;99.90
18934;DHT22;9599;53.706;10.384;2024-01-30T05:03:33;4.60;99.90
18934;DHT22;9599;53.706;10.384;2024-01-30T05:06:01;4.60;99.90
18934;DHT22;9599;53.706;10.384;2024-01-30T05:08:29;4.60;99.90
18934;DHT22;9599;53.706;10.384;2024-01-30T05:11:00;4.60;99.90
18934;DHT22;9599;53.706;10.384;2024-01-30T05:13:28;4.60;99.90
18934;DHT22;9599;53.706;10.384;2024-01-30T05:15:58;4.50;99.90
18934;DHT22;9599;53.706;10.384;2024-01-30T05:18:26;4.50;99.90
18934;DHT22;9599;53.706;10.384;2024-01-30T05:20:54;4.50;99.90
18934;DHT22;9599;53.706;10.384;2024-01-30T05:23:22;4.50;99.90
18934;DHT22;9599;53.706;10.384;2024-01-30T05:25:50;4.50;99.90
18934;DHT22;9599;53.706;10.384;2024-01-30T05:28:18;4.50;99.90
18934;DHT22;9599;53.706;10.384;2024-01-30T05:30:46;4.50;99.90
18934;DHT22;9599;53.706;10.384;2024-01-30T05:33:15;4.50;99.90
18934;DHT22;9599;53.706;10.384;2024-01-30T05:35:44;4.40;99.90
18934;DHT22;9599;53.706;10.384;2024-01-30T05:38:12;4.40;99.90
18934;DHT22;9599;53.706;10.384;2024-01-30T05:40:40;4.40;99.90
18934;DHT22;9599;53.706;10.384;2024-01-30T05:43:08;4.40;99.90
18934;DHT22;9599;53.706;10.384;2024-01-30T05:45:36;4.40;99.90
18934;DHT22;9599;53.706;10.384;2024-01-30T05:48:05;4.40;99.90
18934;DHT22;9599;53.706;10.384;2024-01-30T05:50:34;4.40;99.90
18934;DHT22;9599;53.706;10.384;2024-01-30T05:53:03;4.40;99.90
18934;DHT22;9599;53.706;10.384;2024-01-30T05:55:31;4.50;99.90
18934;DHT22;9599;53.706;10.384;2024-01-30T05:57:59;4.60;99.90
18934;DHT22;9599;53.706;10.384;2024-01-30T06:00:27;4.60;99.90
18934;DHT22;9599;53.706;10.384;2024-01-30T06:02:56;4.60;99.90
18934;DHT22;9599;53.706;10.384;2024-01-30T06:05:24;4.60;99.90
18934;DHT22;9599;53.706;10.384;2024-01-30T06:07:54;4.70;99.90
18934;DHT22;9599;53.706;10.384;2024-01-30T06:10:23;4.70;99.90
18934;DHT22;9599;53.706;10.384;2024-01-30T06:12:51;4.70;99.90
18934;DHT22;9599;53.706;10.384;2024-01-30T06:15:20;4.70;99.90
18934;DHT22;9599;53.706;10.384;2024-01-30T06:17:48;4.70;99.90
18934;DHT22;9599;53.706;10.384;2024-01-30T06:20:16;4.70;99.90
18934;DHT22;9599;53.706;10.384;2024-01-30T06:22:45;4.70;99.90
18934;DHT22;9599;53.706;10.384;2024-01-30T06:25:14;4.70;99.90
18934;DHT22;9599;53.706;10.384;2024-01-30T06:27:43;4.80;99.90
18934;DHT22;9599;53.706;10.384;2024-01-30T06:30:12;4.80;99.90
18934;DHT22;9599;53.706;10.384;2024-01-30T06:32:40;4.70;99.90
18934;DHT22;9599;53.706;10.384;2024-01-30T06:35:08;4.80;99.90
18934;DHT22;9599;53.706;10.384;2024-01-30T06:37:37;4.80;99.90
18934;DHT22;9599;53.706;10.384;2024-01-30T06:40:06;4.80;99.90
18934;DHT22;9599;53.706;10.384;2024-01-30T06:42:36;4.90;99.90
18934;DHT22;9599;53.706;10.384;2024-01-30T06:45:05;5.00;99.90
18934;DHT22;9599;53.706;10.384;2024-01-30T06:47:34;5.00;99.90
18934;DHT22;9599;53.706;10.384;2024-01-30T06:50:02;5.00;99.90
18934;DHT22;9599;53.706;10.384;2024-01-30T06:52:31;5.00;99.90
18934;DHT22;9599;53.706;10.384;2024-01-30T06:54:59;5.10;99.90
18934;DHT22;9599;53.706;10.384;2024-01-30T06:57:27;5.10;99.90
18934;DHT22;9599;53.706;10.384;2024-01-30T06:59:58;5.10;99.90
18934;DHT22;9599;53.706;10.384;2024-01-30T07:02:26;5.10;99.90
18934;DHT22;9599;53.706;10.384;2024-01-30T07:04:54;5.10;99.90
18934;DHT22;9599;53.706;10.384;2024-01-30T07:07:23;5.00;99.90
18934;DHT22;9599;53.706;10.384;2024-01-30T07:09:51;5.10;99.90
18934;DHT22;9599;53.706;10.384;2024-01-30T07:12:23;5.10;99.90
18934;DHT22;9599;53.706;10.384;2024-01-30T07:14:52;5.10;99.90
18934;DHT22;9599;53.706;10.384;2024-01-30T07:17:23;5.20;99.90
18934;DHT22;9599;53.706;10.384;2024-01-30T07:19:51;5.20;99.90
18934;DHT22;9599;53.706;10.384;2024-01-30T07:22:20;5.20;99.90
18934;DHT22;9599;53.706;10.384;2024-01-30T07:24:48;5.20;99.90
18934;DHT22;9599;53.706;10.384;2024-01-30T07:27:17;5.20;99.90
18934;DHT22;9599;53.706;10.384;2024-01-30T07:29:46;5.20;99.90
18934;DHT22;9599;53.706;10.384;2024-01-30T07:32:14;5.20;99.90
18934;DHT22;9599;53.706;10.384;2024-01-30T07:34:43;5.20;99.90
18934;DHT22;9599;53.706;10.384;2024-01-30T07:37:29;5.20;99.90
18934;DHT22;9599;53.706;10.384;2024-01-30T07:39:57;5.20;99.90
18934;DHT22;9599;53.706;10.384;2024-01-30T07:42:25;5.20;99.90
18934;DHT22;9599;53.706;10.384;2024-01-30T07:44:53;5.20;99.90
18934;DHT22;9599;53.706;10.384;2024-01-30T07:47:21;5.20;99.90
18934;DHT22;9599;53.706;10.384;2024-01-30T07:49:50;5.20;99.90
18934;DHT22;9599;53.706;10.384;2024-01-30T07:52:20;5.20;99.90
18934;DHT22;9599;53.706;10.384;2024-01-30T07:54:48;5.30;99.90
18934;DHT22;9599;53.706;10.384;2024-01-30T07:57:42;5.30;99.90
18934;DHT22;9599;53.706;10.384;2024-01-30T08:00:11;5.40;99.90
18934;DHT22;9599;53.706;10.384;2024-01-30T08:02:39;5.40;99.90
18934;DHT22;9599;53.706;10.384;2024-01-30T08:05:09;5.50;99.90
18934;DHT22;9599;53.706;10.384;2024-01-30T08:07:38;5.60;99.90
18934;DHT22;9599;53.706;10.384;2024-01-30T08:10:07;5.50;99.90
18934;DHT22;9599;53.706;10.384;2024-01-30T08:12:35;5.60;99.90
18934;DHT22;9599;53.706;10.384;2024-01-30T08:15:04;5.60;99.90
18934;DHT22;9599;53.706;10.384;2024-01-30T08:17:32;5.60;99.90
18934;DHT22;9599;53.706;10.384;2024-01-30T08:20:00;5.70;99.90
18934;DHT22;9599;53.706;10.384;2024-01-30T08:22:32;5.70;99.90
18934;DHT22;9599;53.706;10.384;2024-01-30T08:25:00;5.80;99.90
18934;DHT22;9599;53.706;10.384;2024-01-30T08:27:29;5.80;99.90
18934;DHT22;9599;53.706;10.384;2024-01-30T08:29:57;5.80;99.90
18934;DHT22;9599;53.706;10.384;2024-01-30T08:32:25;5.80;99.90
18934;DHT22;9599;53.706;10.384;2024-01-30T08:34:53;5.90;99.90
18934;DHT22;9599;53.706;10.384;2024-01-30T08:37:21;5.90;99.90
18934;DHT22;9599;53.706;10.384;2024-01-30T08:39:51;5.90;99.90
18934;DHT22;9599;53.706;10.384;2024-01-30T08:42:19;5.90;99.90
18934;DHT22;9599;53.706;10.384;2024-01-30T08:44:49;5.90;99.90
18934;DHT22;9599;53.706;10.384;2024-01-30T08:47:19;6.00;99.90
18934;DHT22;9599;53.706;10.384;2024-01-30T08:49:47;6.10;99.90
18934;DHT22;9599;53.706;10.384;2024-01-30T08:52:15;6.10;99.90
18934;DHT22;9599;53.706;10.384;2024-01-30T08:54:44;6.30;99.90
18934;DHT22;9599;53.706;10.384;2024-01-30T08:57:14;6.60;99.90
18934;DHT22;9599;53.706;10.384;2024-01-30T08:59:42;6.70;99.90
18934;DHT22;9599;53.706;10.384;2024-01-30T09:02:12;6.70;99.90
18934;DHT22;9599;53.706;10.384;2024-01-30T09:04:43;6.70;99.90
18934;DHT22;9599;53.706;10.384;2024-01-30T09:07:11;6.80;99.90
18934;DHT22;9599;53.706;10.384;2024-01-30T09:09:40;6.90;99.90
18934;DHT22;9599;53.706;10.384;2024-01-30T09:12:09;7.00;99.90
18934;DHT22;9599;53.706;10.384;2024-01-30T09:14:40;7.00;99.90
18934;DHT22;9599;53.706;10.384;2024-01-30T09:17:09;7.00;99.90
18934;DHT22;9599;53.706;10.384;2024-01-30T09:19:37;7.10;99.90
18934;DHT22;9599;53.706;10.384;2024-01-30T09:22:05;7.20;99.90
18934;DHT22;9599;53.706;10.384;2024-01-30T09:24:34;7.20;99.90
18934;DHT22;9599;53.706;10.384;2024-01-30T09:27:03;7.20;99.90
18934;DHT22;9599;53.706;10.384;2024-01-30T09:29:31;7.30;99.90
18934;DHT22;9599;53.706;10.384;2024-01-30T09:32:03;7.30;99.90
18934;DHT22;9599;53.706;10.384;2024-01-30T09:34:31;7.40;99.90
18934;DHT22;9599;53.706;10.384;2024-01-30T09:36:59;7.40;99.90
18934;DHT22;9599;53.706;10.384;2024-01-30T09:39:28;7.40;99.90
18934;DHT22;9599;53.706;10.384;2024-01-30T09:42:04;7.40;99.90
18934;DHT22;9599;53.706;10.384;2024-01-30T09:44:35;7.40;99.90
18934;DHT22;9599;53.706;10.384;2024-01-30T09:47:05;7.40;99.90
18934;DHT22;9599;53.706;10.384;2024-01-30T09:49:34;7.50;99.90
18934;DHT22;9599;53.706;10.384;2024-01-30T09:52:04;7.50;99.90
18934;DHT22;9599;53.706;10.384;2024-01-30T09:54:34;7.50;99.90
18934;DHT22;9599;53.706;10.384;2024-01-30T09:57:03;7.60;99.90
18934;DHT22;9599;53.706;10.384;2024-01-30T09:59:31;7.60;99.90
18934;DHT22;9599;53.706;10.384;2024-01-30T10:02:00;7.70;99.90
18934;DHT22;9599;53.706;10.384;2024-01-30T10:04:32;7.70;99.90
18934;DHT22;9599;53.706;10.384;2024-01-30T10:07:02;7.80;99.90
18934;DHT22;9599;53.706;10.384;2024-01-30T10:09:32;7.80;99.90
18934;DHT22;9599;53.706;10.384;2024-01-30T10:12:02;7.90;99.90
18934;DHT22;9599;53.706;10.384;2024-01-30T10:14:31;8.00;99.90
18934;DHT22;9599;53.706;10.384;2024-01-30T10:17:00;8.10;99.90
18934;DHT22;9599;53.706;10.384;2024-01-30T10:19:34;8.10;99.90
18934;DHT22;9599;53.706;10.384;2024-01-30T10:22:03;8.20;99.90
18934;DHT22;9599;53.706;10.384;2024-01-30T10:24:33;8.20;99.90
18934;DHT22;9599;53.706;10.384;2024-01-30T10:27:01;8.20;99.90
18934;DHT22;9599;53.706;10.384;2024-01-30T10:29:29;8.20;99.90
18934;DHT22;9599;53.706;10.384;2024-01-30T10:31:59;8.30;99.90
18934;DHT22;9599;53.706;10.384;2024-01-30T10:34:27;8.30;99.90
18934;DHT22;9599;53.706;10.384;2024-01-30T10:37:05;8.40;99.90
18934;DHT22;9599;53.706;10.384;2024-01-30T10:39:38;8.50;99.90
18934;DHT22;9599;53.706;10.384;2024-01-30T10:42:11;8.50;99.90
18934;DHT22;9599;53.706;10.384;2024-01-30T10:44:56;8.60;99.90
18934;DHT22;9599;53.706;10.384;2024-01-30T10:47:27;8.60;99.90
18934;DHT22;9599;53.706;10.384;2024-01-30T10:49:56;8.60;99.90
18934;DHT22;9599;53.706;10.384;2024-01-30T10:52:26;8.70;99.90
18934;DHT22;9599;53.706;10.384;2024-01-30T10:54:56;8.80;99.90
18934;DHT22;9599;53.706;10.384;2024-01-30T10:57:25;8.80;99.90
18934;DHT22;9599;53.706;10.384;2024-01-30T10:59:56;8.90;99.90
18934;DHT22;9599;53.706;10.384;2024-01-30T11:02:26;9.00;99.90
18934;DHT22;9599;53.706;10.384;2024-01-30T11:04:56;9.10;99.90
18934;DHT22;9599;53.706;10.384;2024-01-30T11:07:28;9.10;99.90
18934;DHT22;9599;53.706;10.384;2024-01-30T11:10:01;9.20;99.90
18934;DHT22;9599;53.706;10.384;2024-01-30T11:12:31;9.20;99.90
18934;DHT22;9599;53.706;10.384;2024-01-30T11:15:05;9.30;99.90
18934;DHT22;9599;53.706;10.384;2024-01-30T11:17:44;9.40;99.90
18934;DHT22;9599;53.706;10.384;2024-01-30T11:20:15;9.40;99.90
18934;DHT22;9599;53.706;10.384;2024-01-30T11:22:47;9.40;99.90
18934;DHT22;9599;53.706;10.384;2024-01-30T11:25:18;9.40;99.90
18934;DHT22;9599;53.706;10.384;2024-01-30T11:27:50;9.40;99.90
18934;DHT22;9599;53.706;10.384;2024-01-30T11:30:22;9.50;99.90
18934;DHT22;9599;53.706;10.384;2024-01-30T11:33:05;9.50;99.90
18934;DHT22;9599;53.706;10.384;2024-01-30T11:35:36;9.50;99.90
18934;DHT22;9599;53.706;10.384;2024-01-30T11:38:09;9.50;99.90
18934;DHT22;9599;53.706;10.384;2024-01-30T11:40:38;9.50;99.90
18934;DHT22;9599;53.706;10.384;2024-01-30T11:43:08;9.50;99.90
18934;DHT22;9599;53.706;10.384;2024-01-30T11:45:37;9.40;99.90
18934;DHT22;9599;53.706;10.384;2024-01-30T11:48:07;9.50;99.90
18934;DHT22;9599;53.706;10.384;2024-01-30T11:50:39;9.50;99.90
18934;DHT22;9599;53.706;10.384;2024-01-30T11:53:09;9.60;99.90
18934;DHT22;9599;53.706;10.384;2024-01-30T11:55:37;9.60;99.90
18934;DHT22;9599;53.706;10.384;2024-01-30T11:58:06;9.60;99.90
18934;DHT22;9599;53.706;10.384;2024-01-30T12:00:34;9.60;99.90
18934;DHT22;9599;53.706;10.384;2024-01-30T12:03:03;9.50;99.90
18934;DHT22;9599;53.706;10.384;2024-01-30T12:05:33;9.60;99.90
18934;DHT22;9599;53.706;10.384;2024-01-30T12:08:01;9.50;99.90
18934;DHT22;9599;53.706;10.384;2024-01-30T12:10:31;9.50;99.90
18934;DHT22;9599;53.706;10.384;2024-01-30T12:13:00;9.60;99.90
18934;DHT22;9599;53.706;10.384;2024-01-30T12:15:29;9.60;99.90
18934;DHT22;9599;53.706;10.384;2024-01-30T12:18:04;9.60;99.90
18934;DHT22;9599;53.706;10.384;2024-01-30T12:20:34;9.60;99.90
18934;DHT22;9599;53.706;10.384;2024-01-30T12:23:03;9.60;99.90
18934;DHT22;9599;53.706;10.384;2024-01-30T12:25:33;9.60;99.90
18934;DHT22;9599;53.706;10.384;2024-01-30T12:28:01;9.70;99.90
18934;DHT22;9599;53.706;10.384;2024-01-30T12:30:30;9.70;99.90
18934;DHT22;9599;53.706;10.384;2024-01-30T12:32:58;9.60;99.90
18934;DHT22;9599;53.706;10.384;2024-01-30T12:35:26;9.70;99.90
18934;DHT22;9599;53.706;10.384;2024-01-30T12:37:59;9.60;99.90
18934;DHT22;9599;53.706;10.384;2024-01-30T12:40:27;9.70;99.90
18934;DHT22;9599;53.706;10.384;2024-01-30T12:42:57;9.70;99.90
18934;DHT22;9599;53.706;10.384;2024-01-30T12:45:25;9.70;99.90
18934;DHT22;9599;53.706;10.384;2024-01-30T12:47:53;9.70;99.90
18934;DHT22;9599;53.706;10.384;2024-01-30T12:50:22;9.60;99.90
18934;DHT22;9599;53.706;10.384;2024-01-30T12:52:50;9.60;99.90
18934;DHT22;9599;53.706;10.384;2024-01-30T12:55:18;9.60;99.90
18934;DHT22;9599;53.706;10.384;2024-01-30T12:57:46;9.50;99.90
18934;DHT22;9599;53.706;10.384;2024-01-30T13:00:16;9.60;99.90
18934;DHT22;9599;53.706;10.384;2024-01-30T13:02:44;9.50;99.90
18934;DHT22;9599;53.706;10.384;2024-01-30T13:05:13;9.60;99.90
18934;DHT22;9599;53.706;10.384;2024-01-30T13:07:41;9.60;99.90
18934;DHT22;9599;53.706;10.384;2024-01-30T13:10:09;9.60;99.90
18934;DHT22;9599;53.706;10.384;2024-01-30T13:12:38;9.60;99.90
18934;DHT22;9599;53.706;10.384;2024-01-30T13:15:06;9.60;99.90
18934;DHT22;9599;53.706;10.384;2024-01-30T13:17:36;9.60;99.90
18934;DHT22;9599;53.706;10.384;2024-01-30T13:20:05;9.60;99.90
18934;DHT22;9599;53.706;10.384;2024-01-30T13:22:38;9.60;99.90
18934;DHT22;9599;53.706;10.384;2024-01-30T13:25:07;9.60;99.90
18934;DHT22;9599;53.706;10.384;2024-01-30T13:27:36;9.60;99.90
18934;DHT22;9599;53.706;10.384;2024-01-30T13:30:06;9.70;99.90
18934;DHT22;9599;53.706;10.384;2024-01-30T13:32:36;9.70;99.90
18934;DHT22;9599;53.706;10.384;2024-01-30T13:35:04;9.60;99.90
18934;DHT22;9599;53.706;10.384;2024-01-30T13:37:33;9.70;99.90
18934;DHT22;9599;53.706;10.384;2024-01-30T13:40:01;9.70;99.90
18934;DHT22;9599;53.706;10.384;2024-01-30T13:42:33;9.70;99.90
18934;DHT22;9599;53.706;10.384;2024-01-30T13:45:01;9.70;99.90
18934;DHT22;9599;53.706;10.384;2024-01-30T13:47:30;9.70;99.90
18934;DHT22;9599;53.706;10.384;2024-01-30T13:49:59;9.70;99.90
18934;DHT22;9599;53.706;10.384;2024-01-30T13:52:27;9.70;99.90
18934;DHT22;9599;53.706;10.384;2024-01-30T13:55:04;9.70;99.90
18934;DHT22;9599;53.706;10.384;2024-01-30T13:57:32;9.70;99.90
18934;DHT22;9599;53.706;10.384;2024-01-30T14:00:02;9.70;99.90
18934;DHT22;9599;53.706;10.384;2024-01-30T14:02:40;9.80;99.90
18934;DHT22;9599;53.706;10.384;2024-01-30T14:05:10;9.80;99.90
18934;DHT22;9599;53.706;10.384;2024-01-30T14:07:38;9.80;99.90
18934;DHT22;9599;53.706;10.384;2024-01-30T14:10:07;9.80;99.90
18934;DHT22;9599;53.706;10.384;2024-01-30T14:12:42;9.80;99.90
18934;DHT22;9599;53.706;10.384;2024-01-30T14:15:11;9.80;99.90
18934;DHT22;9599;53.706;10.384;2024-01-30T14:17:54;9.80;99.90
18934;DHT22;9599;53.706;10.384;2024-01-30T14:20:27;9.80;99.90
18934;DHT22;9599;53.706;10.384;2024-01-30T14:22:55;9.80;99.90
18934;DHT22;9599;53.706;10.384;2024-01-30T14:25:23;9.80;99.90
18934;DHT22;9599;53.706;10.384;2024-01-30T14:27:52;9.80;99.90
18934;DHT22;9599;53.706;10.384;2024-01-30T14:30:20;9.80;99.90
18934;DHT22;9599;53.706;10.384;2024-01-30T14:32:49;9.80;99.90
18934;DHT22;9599;53.706;10.384;2024-01-30T14:35:17;9.90;99.90
18934;DHT22;9599;53.706;10.384;2024-01-30T14:37:47;9.90;99.90
18934;DHT22;9599;53.706;10.384;2024-01-30T14:40:16;9.90;99.90
18934;DHT22;9599;53.706;10.384;2024-01-30T14:42:44;9.90;99.90
18934;DHT22;9599;53.706;10.384;2024-01-30T14:45:13;9.90;99.90
18934;DHT22;9599;53.706;10.384;2024-01-30T14:47:42;9.90;99.90
18934;DHT22;9599;53.706;10.384;2024-01-30T14:50:11;9.90;99.90
18934;DHT22;9599;53.706;10.384;2024-01-30T14:52:39;9.90;99.90
18934;DHT22;9599;53.706;10.384;2024-01-30T14:55:09;9.90;99.90
18934;DHT22;9599;53.706;10.384;2024-01-30T14:57:37;9.90;99.90
18934;DHT22;9599;53.706;10.384;2024-01-30T15:00:06;9.90;99.90
18934;DHT22;9599;53.706;10.384;2024-01-30T15:02:35;9.90;99.90
18934;DHT22;9599;53.706;10.384;2024-01-30T15:05:04;10.00;99.90
18934;DHT22;9599;53.706;10.384;2024-01-30T15:07:32;10.00;99.90
18934;DHT22;9599;53.706;10.384;2024-01-30T15:10:08;9.90;99.90
18934;DHT22;9599;53.706;10.384;2024-01-30T15:12:37;10.00;99.90
18934;DHT22;9599;53.706;10.384;2024-01-30T15:15:07;9.90;99.90
18934;DHT22;9599;53.706;10.384;2024-01-30T15:17:37;9.90;99.90
18934;DHT22;9599;53.706;10.384;2024-01-30T15:20:05;9.90;99.90
18934;DHT22;9599;53.706;10.384;2024-01-30T15:22:34;10.00;99.90
18934;DHT22;9599;53.706;10.384;2024-01-30T15:25:02;10.00;99.90
18934;DHT22;9599;53.706;10.384;2024-01-30T15:27:32;10.00;99.90
18934;DHT22;9599;53.706;10.384;2024-01-30T15:30:00;10.00;99.90
18934;DHT22;9599;53.706;10.384;2024-01-30T15:32:28;10.00;99.90
18934;DHT22;9599;53.706;10.384;2024-01-30T15:34:56;10.00;99.90
18934;DHT22;9599;53.706;10.384;2024-01-30T15:37:28;10.00;99.90
18934;DHT22;9599;53.706;10.384;2024-01-30T15:39:56;10.00;99.90
18934;DHT22;9599;53.706;10.384;2024-01-30T15:42:24;10.00;99.90
18934;DHT22;9599;53.706;10.384;2024-01-30T15:44:54;10.00;99.90
18934;DHT22;9599;53.706;10.384;2024-01-30T15:47:22;10.00;99.90
18934;DHT22;9599;53.706;10.384;2024-01-30T15:49:50;10.00;99.90
18934;DHT22;9599;53.706;10.384;2024-01-30T15:52:18;10.00;99.90
18934;DHT22;9599;53.706;10.384;2024-01-30T15:54:46;10.00;99.90
18934;DHT22;9599;53.706;10.384;2024-01-30T15:57:15;10.00;99.90